Guthrie, TX (79236)

9:33 AM CDT on August 03, 2015 (GMT -0500)
WT_Meso | | Change Station
CLOSE
Current Station
Personal Weather Station
Location: Guthrie, TX
Elevation: 1998 ft
Nearby Weather Stations

Elev 1998 ft 33.57 °N, 100.48 °W | Updated 28 minutes ago

Overcast
Overcast
77 °F
Feels Like 79 °F
N
8
Wind Variable Wind from ESE
Gusts 10.0 mph

Today
High -- | Low -- °F
--% Chance of Precip.
Yesterday
High -- | Low -- °F
Precip. -- in
6:54 AM 8:39 PM
Waning Gibbous, 86% visible
Pressure 29.91 in
Visibility 9.0 miles
Clouds Clear
Heat Index 79 °F
Dew Point 63 °F
Humidity 62%
Rainfall in
Snow Depth Not available.
UV 2 out of 12
Pollen 3.40 out of 12
Air Quality Not available.
Flu Activity Not available.
METAR KCDS 031353Z AUTO 13009KT 9SM CLR 22/19 A2998 RMK AO2 SLP127 T02220189

More Conditions Fewer Conditions

Pressure 29.91 in
Visibility 9.0 miles
Clouds Clear
Heat Index 79 °F
Dew Point 63 °F
Humidity 62%
Rainfall in
Snow Depth Not available.
UV 2 out of 12
Pollen 3.40 out of 12
Air Quality Not available.
Flu Activity Not available.
METAR KCDS 031353Z AUTO 13009KT 9SM CLR 22/19 A2998 RMK AO2 SLP127 T02220189

More Conditions Fewer Conditions

Nowcast | as of 7:50 am CDT on August 3, 2015

Through 10 am...isolated to scattered showers will continue to move east across the extreme southern Texas Panhandle and South Plains into the rolling plains. Rainfall amounts will be light...ranging from trace amounts to a couple hundredths of an inch.

×

10-Day Weather Forecast

×

Almanac

Astronomy

Aug. 03, 2015 Rise Set
Actual Time
Civil Twilight
Nautical Twilight
Astronomical Twilight
Moon
Length of Visible Light
Length of Day
Tomorrow will be .
, % of the Moon is Illuminated

Today's Extremes

State Highs State Lows

Community

WunderPhotos

Upload Photos

1,843,638 photos uploaded!

WunderBlogs® & News

Nearby

Air Quality

  Air Quality AQ Index Pollutant
Not available.

Snow Depth

Station Depth Elevation

Earthquake Activity

City Distance Mag. Time & Date
Minimum magnitude displayed is 2.5.

Coastal Water Temperatures

Place Temperature

Stations

Nearby Weather Stations

Station Location Temp. Windchill Dew Point Humidity Wind Precip. Elev Updated Type